Time;durP1;ratioP1;P1;durP2;ratioP2;P2;SDS_P1;SDS_P2;PMS_P1;PMS_P2;Temp;Humidity;BMP_temperature;BMP_pressure;BME280_temperature;BME280_humidity;BME280_pressure;Samples;Min_cycle;Max_cycle;Signal;HPM_P1;HPM_P2
2021/12/15 00:01:12;;;;;;;90.60;57.60;;;;;;;10.29;43.30;100234.38;4341181;33;34983;-88
2021/12/15 00:03:41;;;;;;;94.65;61.90;;;;;;;10.65;42.14;100230.31;4333093;32;33567;-90
2021/12/15 00:06:16;;;;;;;97.88;61.28;;;;;;;10.71;41.76;100235.66;4332851;33;33551;-88
2021/12/15 00:08:49;;;;;;;85.28;59.60;;;;;;;10.90;41.27;100226.69;4345547;32;33085;-88
2021/12/15 00:11:18;;;;;;;89.45;60.05;;;;;;;10.80;41.19;100232.47;4348942;32;33890;-88
2021/12/15 00:13:47;;;;;;;97.07;60.63;;;;;;;10.92;41.09;100225.03;4356495;32;34519;-87
2021/12/15 00:16:16;;;;;;;81.60;54.70;;;;;;;11.08;40.65;100223.72;4346475;32;33579;-88
2021/12/15 00:18:44;;;;;;;86.93;56.50;;;;;;;11.35;40.04;100220.13;4350766;32;34130;-87
2021/12/15 00:21:14;;;;;;;91.15;57.03;;;;;;;11.24;40.05;100217.25;4331393;33;33964;-86
2021/12/15 00:23:42;;;;;;;80.00;52.28;;;;;;;11.25;40.21;100218.12;4344770;33;34577;-87
2021/12/15 00:26:10;;;;;;;74.00;48.67;;;;;;;11.24;40.26;100211.16;4356689;32;35431;-87
2021/12/15 00:28:39;;;;;;;71.87;46.25;;;;;;;11.22;40.51;100215.47;4337922;32;35216;-86
2021/12/15 00:31:06;;;;;;;65.05;41.42;;;;;;;11.37;40.52;100208.06;4333843;32;35010;-88
2021/12/15 00:33:38;;;;;;;56.13;39.65;;;;;;;11.08;41.18;100221.13;4356249;32;34550;-88
2021/12/15 00:36:07;;;;;;;54.97;38.03;;;;;;;11.16;41.41;100213.56;4332153;32;34827;-87
2021/12/15 00:38:35;;;;;;;58.20;39.38;;;;;;;11.18;41.47;100217.09;4345622;32;34717;-90
2021/12/15 00:41:04;;;;;;;63.55;42.17;;;;;;;11.40;41.22;100218.50;4356395;32;34082;-90
2021/12/15 00:43:33;;;;;;;64.12;41.28;;;;;;;10.90;41.87;100218.03;4359088;32;33840;-87
2021/12/15 00:46:01;;;;;;;70.30;46.08;;;;;;;11.23;41.16;100230.19;4342860;32;33623;-88
2021/12/15 00:48:29;;;;;;;60.65;40.95;;;;;;;11.16;41.10;100235.19;4330438;33;34843;-90
2021/12/15 00:50:57;;;;;;;59.17;38.72;;;;;;;11.35;40.82;100236.56;4349598;32;34822;-88
2021/12/15 00:53:27;;;;;;;65.40;40.55;;;;;;;10.91;41.41;100236.25;4357953;32;33397;-89
2021/12/15 00:55:54;;;;;;;70.68;42.78;;;;;;;10.30;42.55;100241.31;4353086;32;33658;-90
2021/12/15 00:58:22;;;;;;;72.22;44.40;;;;;;;11.06;41.17;100238.41;4347902;32;34300;-89
2021/12/15 01:00:54;;;;;;;64.95;41.03;;;;;;;10.78;41.58;100236.72;4331015;33;34045;-88
2021/12/15 01:03:22;;;;;;;69.53;41.30;;;;;;;10.77;41.57;100244.47;4332873;32;33508;-88
2021/12/15 01:05:53;;;;;;;72.03;43.45;;;;;;;11.00;41.08;100251.19;4349219;32;34095;-88
2021/12/15 01:08:27;;;;;;;65.53;39.88;;;;;;;11.16;40.81;100250.78;4356178;32;34074;-90
2021/12/15 01:21:51;;;;;;;66.60;41.13;;;;;;;11.66;40.14;100242.56;4349651;32;34367;-89
2021/12/15 01:24:19;;;;;;;66.55;40.35;;;;;;;10.73;41.12;100245.22;4346200;33;34650;-90
2021/12/15 01:26:47;;;;;;;64.65;41.65;;;;;;;11.49;39.15;100244.75;4340209;33;33907;-90
2021/12/15 01:29:15;;;;;;;60.65;39.20;;;;;;;11.20;39.84;100247.41;4346872;32;35181;-91
2021/12/15 01:31:42;;;;;;;63.58;39.80;;;;;;;11.54;39.28;100242.25;4346589;32;34114;-85
2021/12/15 01:34:10;;;;;;;53.47;35.50;;;;;;;11.30;39.55;100239.91;4353405;32;33474;-87
2021/12/15 01:36:38;;;;;;;52.28;34.45;;;;;;;11.40;39.31;100244.47;4349800;32;34074;-90
2021/12/15 01:39:05;;;;;;;54.60;35.17;;;;;;;11.28;39.53;100236.38;4354597;32;33773;-89
2021/12/15 01:41:34;;;;;;;50.17;32.95;;;;;;;11.26;39.68;100240.66;4347483;32;34225;-88
2021/12/15 01:46:54;;;;;;;54.78;32.45;;;;;;;11.41;39.42;100230.69;4357799;32;35479;-92
2021/12/15 01:49:31;;;;;;;53.20;32.75;;;;;;;11.48;39.28;100234.28;4333568;32;34204;-90
2021/12/15 01:52:11;;;;;;;59.20;36.33;;;;;;;11.68;39.09;100241.78;4332436;32;34025;-91
2021/12/15 01:54:42;;;;;;;57.40;36.17;;;;;;;10.18;41.71;100247.84;4332824;33;33773;-90
2021/12/15 01:57:11;;;;;;;52.70;34.55;;;;;;;10.33;41.71;100250.06;4346960;32;34097;-90
2021/12/15 01:59:40;;;;;;;55.28;35.00;;;;;;;11.26;39.70;100248.44;4337972;33;33988;-91
2021/12/15 02:02:09;;;;;;;54.33;35.50;;;;;;;11.28;39.16;100249.34;4340924;32;33749;-90
2021/12/15 02:04:37;;;;;;;53.00;35.42;;;;;;;10.07;41.91;100254.37;4332716;32;33482;-87
2021/12/15 02:07:08;;;;;;;60.60;37.22;;;;;;;8.18;46.09;100251.00;4346390;32;33646;-90
2021/12/15 02:12:08;;;;;;;59.72;37.88;;;;;;;10.41;41.30;100240.81;4347141;32;34174;-89
2021/12/15 02:14:35;;;;;;;56.97;38.17;;;;;;;10.03;41.80;100247.34;4351960;32;33437;-90
2021/12/15 02:17:03;;;;;;;55.00;37.58;;;;;;;9.24;43.73;100246.44;4360614;32;34125;-89
2021/12/15 02:19:31;;;;;;;53.72;38.47;;;;;;;9.94;42.21;100249.66;4349584;32;34243;-90
2021/12/15 02:21:59;;;;;;;57.20;36.88;;;;;;;8.18;45.88;100243.25;4333383;33;35105;-90
2021/12/15 02:24:27;;;;;;;51.70;33.35;;;;;;;8.11;46.54;100243.87;4317497;33;33639;-91
2021/12/15 02:26:59;;;;;;;49.22;32.38;;;;;;;8.98;44.49;100236.87;4343544;32;34048;-88
2021/12/15 02:29:31;;;;;;;39.40;27.85;;;;;;;10.09;42.10;100234.59;4347958;32;35242;-90
2021/12/15 02:32:19;;;;;;;40.35;28.58;;;;;;;10.12;41.44;100239.88;4347878;32;35097;-91
2021/12/15 02:37:33;;;;;;;;;;;;;;;9.63;42.37;100248.62;4348751;32;33743;-87
2021/12/15 02:40:06;;;;;;;31.02;23.33;;;;;;;10.02;41.74;100245.59;4345273;32;35184;-89
2021/12/15 02:42:37;;;;;;;31.77;22.45;;;;;;;10.02;41.73;100248.19;4341449;32;34191;-92
2021/12/15 02:45:08;;;;;;;32.55;21.95;;;;;;;10.19;41.66;100240.94;4335079;32;34687;-92
2021/12/15 02:47:36;;;;;;;32.10;22.85;;;;;;;9.97;41.55;100249.75;4346620;32;35109;-89
2021/12/15 02:50:07;;;;;;;27.42;20.75;;;;;;;9.85;41.62;100252.84;4338345;32;34065;-91
2021/12/15 02:52:36;;;;;;;29.17;21.20;;;;;;;10.07;41.27;100249.19;4338045;33;34157;-91
2021/12/15 02:55:05;;;;;;;29.92;20.95;;;;;;;9.06;43.55;100244.91;4332232;33;34673;-91
2021/12/15 02:57:34;;;;;;;28.75;20.77;;;;;;;10.12;41.33;100239.88;4346400;32;34028;-91
2021/12/15 03:00:16;;;;;;;30.65;21.27;;;;;;;10.36;40.88;100236.31;4350247;32;33792;-91
2021/12/15 03:05:42;;;;;;;29.45;21.23;;;;;;;10.42;40.71;100232.22;4360263;32;33771;-91
2021/12/15 03:08:16;;;;;;;28.85;21.20;;;;;;;10.40;41.08;100228.69;4351939;32;34777;-90
2021/12/15 03:16:20;;;;;;;32.13;23.02;;;;;;;8.27;45.06;100233.31;4345352;32;33873;-88
2021/12/15 03:18:48;;;;;;;31.00;22.77;;;;;;;9.30;43.24;100234.53;4350710;32;35048;-91
2021/12/15 03:21:24;;;;;;;34.22;24.63;;;;;;;10.17;41.51;100219.28;4345736;32;33934;-91
2021/12/15 03:24:06;;;;;;;36.72;26.10;;;;;;;10.21;41.26;100222.03;4357057;32;33936;-91
2021/12/15 03:26:41;;;;;;;37.67;25.83;;;;;;;10.19;41.09;100213.34;4327027;33;34056;-92
2021/12/15 03:35:02;;;;;;;37.00;27.58;;;;;;;10.83;40.21;100203.13;4351929;32;34173;-90
2021/12/15 03:37:35;;;;;;;38.78;27.15;;;;;;;10.67;40.46;100205.28;4348776;32;34474;-89
2021/12/15 03:40:19;;;;;;;43.10;28.50;;;;;;;10.88;40.27;100209.34;4346632;32;34088;-91
2021/12/15 03:42:50;;;;;;;39.05;26.87;;;;;;;10.95;40.07;100213.87;4353710;32;35325;-91
2021/12/15 03:45:26;;;;;;;43.10;28.67;;;;;;;10.96;40.19;100219.09;4353112;32;34384;-90
2021/12/15 03:47:56;;;;;;;40.88;29.45;;;;;;;10.37;40.52;100223.41;4352464;32;33616;-88
2021/12/15 03:50:27;;;;;;;43.30;30.10;;;;;;;10.93;39.61;100216.41;4352070;32;34318;-91
2021/12/15 03:52:55;;;;;;;41.42;29.70;;;;;;;9.65;42.08;100227.97;4358806;32;33733;-90
2021/12/15 03:55:26;;;;;;;42.08;29.75;;;;;;;10.05;41.56;100224.97;4346136;32;32538;-89
2021/12/15 03:57:55;;;;;;;41.75;28.27;;;;;;;10.45;40.65;100221.03;4352601;32;33358;-90
2021/12/15 04:00:23;;;;;;;38.78;28.40;;;;;;;11.04;39.76;100231.41;4352524;32;34907;-88
2021/12/15 04:02:51;;;;;;;39.05;26.40;;;;;;;11.04;39.89;100224.50;4345407;32;34666;-89
2021/12/15 04:05:20;;;;;;;46.03;30.02;;;;;;;10.41;40.88;100214.88;4345400;32;33841;-90
2021/12/15 04:07:49;;;;;;;40.05;29.15;;;;;;;10.70;40.51;100220.94;4341208;32;33545;-90
2021/12/15 04:10:20;;;;;;;42.60;28.58;;;;;;;10.78;39.97;100220.28;4338583;33;34939;-90
2021/12/15 04:12:48;;;;;;;41.50;27.85;;;;;;;10.60;40.14;100223.22;4345160;33;35016;-91
2021/12/15 04:15:29;;;;;;;38.70;27.55;;;;;;;11.33;38.90;100232.19;4331186;33;34872;-91
2021/12/15 04:18:02;;;;;;;37.75;26.80;;;;;;;11.23;38.67;100230.19;4332952;33;34408;-90
2021/12/15 04:20:33;;;;;;;39.70;27.37;;;;;;;11.04;38.95;100236.59;4344380;33;34106;-91
2021/12/15 04:23:03;;;;;;;40.67;27.77;;;;;;;11.11;38.81;100242.00;4344024;32;33934;-89
2021/12/15 04:25:34;;;;;;;38.65;28.05;;;;;;;11.35;38.23;100235.69;4342002;33;34339;-91
2021/12/15 04:28:04;;;;;;;40.97;26.33;;;;;;;10.59;38.97;100231.84;4342532;33;33679;-90
2021/12/15 04:30:37;;;;;;;36.97;25.00;;;;;;;10.63;39.16;100228.50;4344701;33;34977;-91
2021/12/15 04:33:13;;;;;;;38.33;26.02;;;;;;;10.57;39.34;100224.03;4344249;32;34249;-87
2021/12/15 04:35:42;;;;;;;33.90;23.33;;;;;;;11.07;38.31;100228.91;4348334;32;33916;-90
2021/12/15 04:38:11;;;;;;;35.10;25.88;;;;;;;10.60;39.18;100226.69;4339430;32;34476;-90
2021/12/15 04:40:39;;;;;;;34.30;24.95;;;;;;;10.75;38.91;100240.94;4344797;32;33634;-89
2021/12/15 04:43:08;;;;;;;38.10;25.92;;;;;;;10.63;38.97;100247.53;4344647;33;34491;-90
2021/12/15 04:45:35;;;;;;;37.00;25.35;;;;;;;10.68;38.94;100251.16;4344679;32;34043;-90
2021/12/15 04:48:03;;;;;;;35.83;25.10;;;;;;;10.63;38.95;100250.13;4344108;33;33665;-92
2021/12/15 04:50:31;;;;;;;36.72;25.67;;;;;;;10.86;38.88;100252.50;4323004;33;34017;-91
2021/12/15 04:53:02;;;;;;;34.15;25.90;;;;;;;10.95;38.78;100255.38;4345898;32;34135;-90
2021/12/15 04:55:33;;;;;;;38.15;26.37;;;;;;;11.20;38.40;100247.41;4345490;32;34226;-91
2021/12/15 04:58:02;;;;;;;36.22;25.85;;;;;;;10.73;39.18;100247.81;4346021;33;33912;-88
2021/12/15 05:00:33;;;;;;;38.20;26.62;;;;;;;10.61;39.53;100254.41;4355940;32;33831;-90
2021/12/15 05:03:01;;;;;;;35.40;25.30;;;;;;;10.89;39.25;100258.66;4345897;32;34180;-90
2021/12/15 05:05:29;;;;;;;35.55;25.42;;;;;;;10.70;39.44;100248.59;4332610;33;33924;-89
2021/12/15 05:07:57;;;;;;;36.78;25.70;;;;;;;10.47;39.94;100266.06;4346371;33;33396;-90
2021/12/15 05:10:26;;;;;;;36.90;25.52;;;;;;;10.56;39.96;100265.44;4346773;33;34003;-89
2021/12/15 05:12:55;;;;;;;40.30;27.65;;;;;;;10.62;39.81;100271.69;4346758;32;34194;-91
2021/12/15 05:15:22;;;;;;;34.40;25.25;;;;;;;10.93;39.39;100275.19;4344879;32;34321;-91
2021/12/15 05:17:50;;;;;;;35.65;24.23;;;;;;;11.04;39.25;100281.56;4343793;33;34177;-90
2021/12/15 05:20:18;;;;;;;34.97;24.55;;;;;;;10.95;39.46;100278.72;4345393;33;33255;-90
2021/12/15 05:22:46;;;;;;;34.78;24.48;;;;;;;11.17;39.19;100278.50;4347526;32;33971;-91
2021/12/15 05:25:13;;;;;;;35.83;26.58;;;;;;;11.02;39.43;100287.56;4332335;33;34209;-90
2021/12/15 05:27:41;;;;;;;34.88;25.62;;;;;;;10.89;39.48;100276.81;4346098;33;33589;-89
2021/12/15 05:30:11;;;;;;;34.50;24.20;;;;;;;11.11;39.29;100283.53;4345338;33;33709;-90
2021/12/15 05:32:39;;;;;;;36.03;25.50;;;;;;;11.15;39.33;100297.47;4344766;32;34624;-89
2021/12/15 05:35:09;;;;;;;34.28;22.80;;;;;;;11.20;39.22;100291.56;4352415;32;34196;-90
2021/12/15 05:37:37;;;;;;;37.63;25.33;;;;;;;11.12;39.22;100295.66;4336929;32;33584;-91
2021/12/15 05:40:06;;;;;;;35.80;24.35;;;;;;;10.95;39.79;100300.38;4345394;33;34680;-91
2021/12/15 05:42:34;;;;;;;34.13;24.27;;;;;;;11.05;39.66;100293.72;4335831;32;36330;-91
2021/12/15 05:45:02;;;;;;;33.13;25.40;;;;;;;11.49;39.10;100299.28;4346049;33;34150;-86
2021/12/15 05:47:30;;;;;;;36.70;25.58;;;;;;;11.24;39.32;100296.84;4332128;33;33483;-90
2021/12/15 05:49:57;;;;;;;36.33;25.00;;;;;;;10.94;39.86;100298.59;4332786;33;34867;-88
2021/12/15 05:52:30;;;;;;;49.75;33.88;;;;;;;10.01;41.67;100316.38;4345234;32;34000;-88
2021/12/15 05:54:58;;;;;;;51.47;35.25;;;;;;;9.73;42.57;100330.09;4346139;33;34025;-90
2021/12/15 05:57:26;;;;;;;54.28;36.30;;;;;;;10.37;40.65;100323.62;4345862;33;33373;-92
2021/12/15 05:59:54;;;;;;;59.70;39.00;;;;;;;10.03;41.38;100319.00;4346127;33;34023;-88
2021/12/15 06:02:22;;;;;;;53.50;36.67;;;;;;;9.94;41.59;100315.28;4347680;32;35076;-88
2021/12/15 06:04:49;;;;;;;48.22;34.30;;;;;;;10.35;41.02;100330.47;4344294;32;33713;-93
2021/12/15 06:07:17;;;;;;;47.13;33.30;;;;;;;10.59;40.70;100327.78;4360959;32;33659;-94
2021/12/15 06:09:44;;;;;;;52.75;34.47;;;;;;;10.74;40.56;100327.38;4360972;32;34015;-92
2021/12/15 06:12:12;;;;;;;51.97;35.85;;;;;;;11.04;39.86;100332.59;4357933;32;34265;-89
2021/12/15 06:14:42;;;;;;;52.25;33.72;;;;;;;10.56;40.43;100338.03;4336133;33;35040;-91
2021/12/15 06:17:11;;;;;;;49.40;32.65;;;;;;;10.64;40.16;100347.81;4346625;33;34706;-91
2021/12/15 06:19:39;;;;;;;49.38;32.42;;;;;;;10.43;40.55;100358.41;4345289;33;35010;-91
2021/12/15 06:22:08;;;;;;;46.88;31.52;;;;;;;9.53;42.16;100359.59;4358564;32;34064;-91
2021/12/15 06:24:36;;;;;;;44.05;31.83;;;;;;;10.58;40.11;100365.78;4361041;32;34840;-90
2021/12/15 06:27:10;;;;;;;50.08;33.28;;;;;;;10.55;40.31;100368.28;4361087;32;33563;-90
2021/12/15 06:29:37;;;;;;;54.90;36.35;;;;;;;10.60;40.17;100371.91;4360946;32;33602;-90
2021/12/15 06:32:05;;;;;;;56.13;35.78;;;;;;;9.77;41.70;100359.56;4355430;32;34154;-91
2021/12/15 06:34:33;;;;;;;53.30;37.00;;;;;;;10.05;41.24;100364.88;4361451;32;35112;-89
2021/12/15 06:37:00;;;;;;;54.35;37.30;;;;;;;9.47;42.25;100368.00;4361045;32;34893;-89
2021/12/15 06:39:29;;;;;;;56.55;37.22;;;;;;;9.21;43.01;100369.66;4360802;32;33962;-91
2021/12/15 06:41:57;;;;;;;57.25;37.33;;;;;;;10.25;41.04;100365.56;4359846;32;35014;-90
2021/12/15 06:44:24;;;;;;;57.35;37.35;;;;;;;9.81;41.73;100367.53;4331258;33;34890;-91
2021/12/15 06:47:23;;;;;;;53.85;37.80;;;;;;;10.51;40.47;100363.84;4330952;33;33773;-91
2021/12/15 06:58:13;;;;;;;49.20;32.85;;;;;;;10.80;40.10;100358.69;4346080;33;33931;-91
2021/12/15 07:00:50;;;;;;;50.83;33.95;;;;;;;10.66;40.08;100372.09;4346067;33;33660;-90
2021/12/15 07:03:18;;;;;;;50.00;34.22;;;;;;;10.45;40.59;100371.41;4341213;32;34119;-90
2021/12/15 07:05:46;;;;;;;52.83;34.53;;;;;;;10.42;40.68;100379.09;4360595;32;34211;-91
2021/12/15 07:08:14;;;;;;;51.17;33.03;;;;;;;10.32;40.96;100387.41;4360609;32;34477;-90
2021/12/15 07:10:47;;;;;;;53.10;34.60;;;;;;;10.04;41.67;100394.22;4360563;32;35614;-90
2021/12/15 07:13:16;;;;;;;48.22;32.90;;;;;;;10.55;40.35;100398.53;4345802;32;33876;-91
2021/12/15 07:15:46;;;;;;;48.03;33.15;;;;;;;10.22;40.55;100399.13;4341846;33;34500;-91
2021/12/15 07:18:25;;;;;;;52.90;34.55;;;;;;;10.77;39.80;100394.91;4332485;33;33793;-92
2021/12/15 07:20:54;;;;;;;47.85;34.10;;;;;;;10.65;39.95;100390.22;4330729;33;34127;-91
2021/12/15 07:23:22;;;;;;;53.33;34.63;;;;;;;10.57;40.41;100397.75;4328047;33;33915;-92
2021/12/15 07:25:51;;;;;;;54.70;35.55;;;;;;;10.63;40.11;100400.53;4345611;33;33803;-92
2021/12/15 07:28:23;;;;;;;62.22;35.47;;;;;;;10.81;40.10;100397.66;4332749;33;34666;-91
2021/12/15 07:30:51;;;;;;;58.85;35.90;;;;;;;10.37;41.46;100399.66;4353672;32;33851;-87
2021/12/15 07:33:22;;;;;;;57.62;34.85;;;;;;;10.50;41.22;100400.97;4331802;33;34053;-90
2021/12/15 07:35:50;;;;;;;55.92;33.05;;;;;;;9.45;43.46;100400.72;4345723;33;34855;-88
2021/12/15 07:38:18;;;;;;;57.47;35.72;;;;;;;9.52;43.48;100396.66;4345530;33;33724;-88
2021/12/15 07:40:46;;;;;;;55.35;33.75;;;;;;;9.85;42.87;100397.88;4331078;33;34727;-91
2021/12/15 07:43:24;;;;;;;56.97;35.17;;;;;;;9.93;43.08;100405.91;4331005;33;33799;-88
2021/12/15 07:45:59;;;;;;;61.75;36.65;;;;;;;10.32;42.32;100401.25;4330815;33;34094;-91
2021/12/15 07:48:30;;;;;;;63.50;35.63;;;;;;;9.84;43.16;100413.34;4331034;32;34298;-90
2021/12/15 07:50:59;;;;;;;61.40;34.40;;;;;;;9.44;44.60;100417.97;4342676;33;33886;-92
2021/12/15 07:53:27;;;;;;;54.67;32.78;;;;;;;8.66;46.75;100414.94;4345368;33;34267;-91
2021/12/15 07:55:55;;;;;;;65.40;34.83;;;;;;;9.19;45.85;100408.38;4336700;33;33880;-89
2021/12/15 07:58:25;;;;;;;79.82;36.17;;;;;;;8.76;46.82;100414.47;4348478;32;34783;-89
2021/12/15 08:00:55;;;;;;;78.93;37.17;;;;;;;8.44;47.81;100420.03;4351450;32;34821;-91
2021/12/15 08:03:23;;;;;;;77.80;38.45;;;;;;;8.82;47.16;100431.06;4345526;33;34157;-89
2021/12/15 08:05:52;;;;;;;59.30;33.15;;;;;;;8.83;47.10;100440.59;4348926;32;34352;-90
2021/12/15 08:08:19;;;;;;;74.25;35.45;;;;;;;9.38;45.79;100433.25;4345241;33;34243;-88
2021/12/15 08:10:48;;;;;;;60.40;35.53;;;;;;;8.92;47.10;100446.13;4349970;32;34883;-88
2021/12/15 08:13:16;;;;;;;62.85;35.15;;;;;;;8.97;47.25;100442.88;4344655;32;34179;-90
2021/12/15 08:15:44;;;;;;;60.47;36.70;;;;;;;9.36;46.53;100439.22;4358727;32;33466;-90
2021/12/15 08:18:12;;;;;;;72.15;34.75;;;;;;;9.62;46.01;100445.34;4360126;32;34751;-90
2021/12/15 08:20:41;;;;;;;54.88;33.30;;;;;;;9.11;46.92;100451.19;4346605;32;34599;-90
2021/12/15 08:23:09;;;;;;;80.32;34.53;;;;;;;9.29;46.96;100455.34;4346379;32;34133;-91
2021/12/15 08:25:38;;;;;;;53.83;32.78;;;;;;;8.93;47.87;100465.97;4359955;32;34219;-90
2021/12/15 08:28:07;;;;;;;79.55;32.78;;;;;;;9.23;47.27;100462.00;4348164;32;33572;-90
2021/12/15 08:30:35;;;;;;;85.35;34.22;;;;;;;9.62;46.46;100466.06;4361889;32;34121;-90
2021/12/15 08:33:06;;;;;;;88.55;35.15;;;;;;;9.82;45.94;100477.19;4361909;32;34894;-91
2021/12/15 08:35:38;;;;;;;118.68;35.88;;;;;;;9.69;46.33;100481.88;4361610;32;34130;-91
2021/12/15 08:38:06;;;;;;;61.60;33.42;;;;;;;8.89;48.65;100488.25;4361649;32;33453;-91
2021/12/15 08:40:34;;;;;;;117.97;44.22;;;;;;;9.35;47.37;100484.00;4361455;32;34099;-91
2021/12/15 08:58:53;;;;;;;100.60;34.55;;;;;;;9.13;49.72;100493.56;4331101;33;20139;-84
2021/12/15 09:01:21;;;;;;;70.22;32.35;;;;;;;9.21;49.65;100492.13;4318637;33;33785;-84
2021/12/15 09:03:49;;;;;;;65.22;33.10;;;;;;;9.59;48.49;100484.97;4331609;33;34548;-84
2021/12/15 09:06:19;;;;;;;120.37;36.28;;;;;;;9.19;49.47;100486.00;4318770;33;32988;-84
2021/12/15 09:08:47;;;;;;;48.13;31.67;;;;;;;9.11;49.82;100482.25;4331761;33;34039;-84
2021/12/15 09:11:18;;;;;;;65.22;32.35;;;;;;;9.85;47.92;100485.94;4318165;33;33626;-84
2021/12/15 09:13:49;;;;;;;130.15;35.58;;;;;;;9.77;48.48;100486.47;4331826;33;34717;-84
2021/12/15 09:16:19;;;;;;;63.65;31.17;;;;;;;9.69;48.66;100474.09;4318542;33;35148;-84
2021/12/15 09:18:48;;;;;;;70.90;34.90;;;;;;;10.50;47.21;100477.87;4331665;33;34290;-84
2021/12/15 09:21:18;;;;;;;67.65;35.13;;;;;;;10.86;46.47;100481.69;4331736;33;33895;-84
2021/12/15 09:23:46;;;;;;;49.13;31.30;;;;;;;10.92;46.51;100478.41;4318383;33;33890;-84
2021/12/15 09:26:14;;;;;;;54.33;31.67;;;;;;;10.72;46.57;100472.59;4318330;33;34721;-88
2021/12/15 09:28:42;;;;;;;58.78;31.20;;;;;;;10.28;48.08;100476.25;4306275;33;34432;-84
2021/12/15 09:31:11;;;;;;;49.47;31.48;;;;;;;10.14;48.39;100474.00;4306318;33;33760;-84
2021/12/15 09:33:41;;;;;;;52.10;31.85;;;;;;;9.86;49.40;100477.34;4331664;33;33611;-84
2021/12/15 09:36:10;;;;;;;68.50;35.15;;;;;;;10.03;49.22;100479.66;4331512;33;34362;-84
2021/12/15 09:38:38;;;;;;;59.33;34.97;;;;;;;10.05;48.63;100478.00;4317294;33;34093;-84
2021/12/15 09:41:09;;;;;;;51.05;31.27;;;;;;;10.34;48.11;100471.25;4331346;33;33262;-85
2021/12/15 09:43:37;;;;;;;52.72;32.58;;;;;;;9.59;49.66;100479.78;4331448;33;33806;-84
2021/12/15 09:46:14;;;;;;;53.83;33.97;;;;;;;10.08;48.90;100468.63;4328422;33;102086;-84
2021/12/15 09:57:17;;;;;;;54.00;32.35;;;;;;;9.92;50.09;100469.75;4331292;33;34135;-84
2021/12/15 10:03:03;;;;;;;53.90;34.75;;;;;;;10.38;48.90;100470.53;4320291;33;33261;-84
2021/12/15 10:19:38;;;;;;;49.85;32.90;;;;;;;10.14;50.00;100468.84;4317588;33;33547;-84
2021/12/15 10:22:25;;;;;;;38.88;26.92;;;;;;;10.08;49.69;100473.81;4331238;33;33898;-84
2021/12/15 10:25:04;;;;;;;42.13;28.92;;;;;;;10.05;49.16;100473.69;4330888;33;33761;-84
2021/12/15 10:27:59;;;;;;;47.13;30.37;;;;;;;10.48;48.62;100477.81;4317875;33;33887;-84
2021/12/15 10:30:28;;;;;;;44.83;29.00;;;;;;;10.68;47.95;100481.97;4317854;33;33757;-84
2021/12/15 10:33:03;;;;;;;48.63;29.70;;;;;;;11.66;45.37;100472.03;4317732;33;34351;-84
2021/12/15 10:35:34;;;;;;;43.53;29.27;;;;;;;10.55;48.28;100484.97;4331050;33;34776;-84
2021/12/15 10:38:20;;;;;;;43.22;29.73;;;;;;;9.99;49.49;100483.84;4330931;33;33810;-84
2021/12/15 10:41:04;;;;;;;42.53;27.92;;;;;;;10.09;49.23;100479.88;4317968;33;34077;-84
2021/12/15 10:43:53;;;;;;;45.22;29.73;;;;;;;9.82;50.02;100484.94;4331096;33;34002;-84
2021/12/15 10:46:24;;;;;;;43.90;28.80;;;;;;;10.54;48.35;100482.34;4317558;33;32397;-88
2021/12/15 10:48:57;;;;;;;42.62;29.02;;;;;;;10.11;49.40;100479.09;4330629;33;33903;-86
2021/12/15 10:51:27;;;;;;;41.78;29.08;;;;;;;10.71;47.59;100484.66;4331069;33;34260;-89
2021/12/15 10:54:17;;;;;;;44.00;30.40;;;;;;;10.63;47.88;100485.22;4331113;33;35094;-89
2021/12/15 10:56:58;;;;;;;42.22;29.00;;;;;;;10.46;48.33;100485.56;4317640;33;34364;-83
2021/12/15 10:59:30;;;;;;;42.22;28.25;;;;;;;11.32;46.27;100487.44;4330873;33;34106;-84
2021/12/15 11:02:06;;;;;;;43.80;27.30;;;;;;;10.96;46.22;100481.16;4331321;33;35082;-84
2021/12/15 11:04:46;;;;;;;41.15;27.90;;;;;;;11.11;45.65;100485.06;4317909;33;34143;-84
2021/12/15 11:07:17;;;;;;;42.38;29.05;;;;;;;11.10;45.50;100491.06;4331099;33;33585;-84
2021/12/15 11:09:46;;;;;;;40.97;26.27;;;;;;;11.11;45.69;100480.75;4330978;33;33970;-84
2021/12/15 11:12:16;;;;;;;40.12;25.88;;;;;;;11.10;45.30;100480.69;4330776;33;34326;-84
2021/12/15 11:14:48;;;;;;;37.53;24.30;;;;;;;11.17;45.46;100482.66;4331123;33;34145;-84
2021/12/15 11:17:23;;;;;;;39.05;26.42;;;;;;;11.36;44.55;100478.91;4331100;33;34045;-84
2021/12/15 11:19:53;;;;;;;39.58;25.98;;;;;;;11.82;43.86;100475.97;4330933;33;34459;-84
2021/12/15 11:22:43;;;;;;;44.08;27.08;;;;;;;11.03;46.03;100478.78;4317365;33;33972;-84
2021/12/15 11:25:13;;;;;;;42.80;26.95;;;;;;;10.63;47.35;100480.91;4330921;33;34375;-84
2021/12/15 11:27:41;;;;;;;40.05;26.80;;;;;;;10.51;48.14;100477.91;4330951;33;33440;-84
2021/12/15 11:30:14;;;;;;;40.40;25.50;;;;;;;10.93;47.00;100480.16;4317585;33;33895;-84
2021/12/15 11:32:45;;;;;;;40.88;25.77;;;;;;;11.29;45.59;100475.28;4330756;33;34655;-84
2021/12/15 11:35:26;;;;;;;41.88;25.65;;;;;;;11.05;46.57;100477.97;4330693;33;34835;-84
2021/12/15 11:38:13;;;;;;;36.08;23.98;;;;;;;11.50;45.45;100472.44;4331033;33;34595;-84
2021/12/15 11:40:45;;;;;;;36.50;22.50;;;;;;;11.87;44.28;100478.75;4317578;33;33613;-84
2021/12/15 11:43:30;;;;;;;38.35;24.33;;;;;;;11.48;44.88;100475.81;4317493;33;33732;-84
2021/12/15 11:45:59;;;;;;;38.90;23.60;;;;;;;12.23;43.26;100470.19;4330618;33;33763;-84
2021/12/15 11:48:33;;;;;;;39.28;24.73;;;;;;;12.21;43.94;100466.69;4317434;33;33417;-84
2021/12/15 11:51:04;;;;;;;39.20;23.58;;;;;;;10.41;47.51;100470.66;4317399;33;33881;-84
2021/12/15 11:53:31;;;;;;;35.78;23.90;;;;;;;11.71;44.91;100453.13;4317264;33;33694;-85
2021/12/15 11:56:17;;;;;;;37.40;23.05;;;;;;;12.10;44.42;100459.47;4330724;33;33045;-84
2021/12/15 11:58:46;;;;;;;32.47;20.88;;;;;;;11.89;44.31;100454.56;4317150;33;34289;-85
2021/12/15 12:01:40;;;;;;;35.50;20.00;;;;;;;11.85;44.18;100457.87;4329718;33;33877;-84
2021/12/15 12:04:29;;;;;;;30.37;19.35;;;;;;;12.86;41.47;100467.47;4317088;33;34219;-84
2021/12/15 12:07:19;;;;;;;30.90;18.65;;;;;;;12.34;43.17;100454.03;4330155;33;35222;-84
2021/12/15 12:09:51;;;;;;;33.22;21.08;;;;;;;12.75;41.90;100461.13;4330410;33;33502;-84
2021/12/15 12:12:22;;;;;;;31.40;19.30;;;;;;;12.65;42.20;100462.59;4330535;33;34012;-84
2021/12/15 12:14:50;;;;;;;30.35;18.52;;;;;;;12.81;41.88;100456.97;4317362;33;34113;-84
2021/12/15 12:17:29;;;;;;;32.10;19.17;;;;;;;12.62;42.15;100449.56;4316729;33;32774;-86
2021/12/15 12:19:58;;;;;;;32.20;20.17;;;;;;;12.39;43.06;100452.44;4330434;33;33673;-84
2021/12/15 12:22:29;;;;;;;33.85;19.40;;;;;;;12.59;42.85;100447.75;4330310;33;33663;-84
2021/12/15 12:24:59;;;;;;;32.85;20.42;;;;;;;11.67;44.45;100447.84;4330245;33;34074;-84
2021/12/15 12:27:30;;;;;;;32.20;20.17;;;;;;;12.15;43.71;100450.06;4316686;33;32449;-84
2021/12/15 12:30:01;;;;;;;31.35;19.98;;;;;;;12.34;43.28;100440.16;4330049;33;33920;-89
2021/12/15 12:32:28;;;;;;;37.50;22.20;;;;;;;12.46;43.13;100447.37;4330126;33;34092;-84
2021/12/15 12:34:57;;;;;;;32.20;21.20;;;;;;;12.01;43.81;100446.22;4329962;33;34984;-85
2021/12/15 12:37:25;;;;;;;34.15;22.27;;;;;;;12.64;42.65;100447.84;4316594;33;34205;-88
2021/12/15 12:39:58;;;;;;;32.67;20.60;;;;;;;12.78;42.46;100440.41;4316653;33;34508;-84
2021/12/15 12:42:35;;;;;;;31.92;19.35;;;;;;;12.64;42.65;100450.44;4329956;33;34096;-87
2021/12/15 12:45:39;;;;;;;30.83;19.35;;;;;;;12.42;42.67;100459.41;4316753;33;34085;-89
2021/12/15 12:48:31;;;;;;;31.67;19.45;;;;;;;13.32;41.23;100448.62;4315626;33;34283;-84
2021/12/15 12:59:45;;;;;;;31.98;18.52;;;;;;;13.39;41.53;100447.03;4329547;33;34368;-84
2021/12/15 13:02:24;;;;;;;31.95;19.55;;;;;;;13.86;40.36;100434.09;4329836;33;33505;-87